​ ​

Форум клана ЧПУшников

Информация о пользователе

Привет, Гость! Войдите или зарегистрируйтесь.


Вы здесь » Форум клана ЧПУшников » Лазерные станки


Лазерные станки

Тем 1 страница 80 из 636

Тема Ответов Просмотров Последнее сообщение
1 Важно: Фото готовых работ выполненных на лазере 2  Администратор  [ 1 2 3  10 ]
905 70492 10-04-2021 18:53:11  Jek44
2 Важно: Подскажите новичку 4  Kula  [ 1 2 3  9 ]
813 19436 02-03-2021 10:49:23  polikovskii
172 9848 22-06-2020 15:49:13  Vera
95 14361 Вчера 16:00:12  Умняшка
107 5499 Вчера 11:09:49  Siga
39 2998 20-04-2021 21:08:30  Valera5609
192 5863 20-04-2021 12:54:35  Prisrak
239 25885 19-04-2021 10:20:09  Kinetic
3 75 15-04-2021 12:48:55  су-24
348 37904 10-04-2021 19:39:34  Jek44
6 112 02-04-2021 15:14:00  Valera5609
12 LaserCAD  Valentin25
10 527 01-04-2021 16:02:13  Сергей Одесса
13 Нужна помощь специалистов!  Мастер на все руки
31 1556 29-03-2021 12:18:15  Владимирская?
14 ortur laser master2-20w  Александр Сихаев
7 122 27-03-2021 21:25:23  Valera5609
1 38 24-03-2021 21:35:31  SNS
1 43 24-03-2021 16:56:07  Radiovolna
0 59 23-03-2021 13:17:34  headbI4
0 63 21-03-2021 13:18:28  headbI4
143 15814 16-03-2021 16:57:36  Valera5609
12 259 15-03-2021 23:02:45  ЮгРФ
21 выбор компрессора  ecto  [ 1 2 3 4 ]
376 16096 15-03-2021 22:39:49  ЮгРФ
2 44 15-03-2021 20:28:32  Rilov
0 71 15-03-2021 19:40:08  lazukin vlad
1 39 14-03-2021 20:10:46  3aBp
23 340 12-03-2021 17:17:15  Valera5609
3 77 10-03-2021 20:42:04  Valera5609
2 161 08-03-2021 09:12:17  Вассс
3 98 07-03-2021 22:42:59  Valera5609
349 20671 06-03-2021 02:16:05  CNCshnick
15 183 28-02-2021 05:46:23  Dark Knight
2 62 25-02-2021 23:08:23  комса45
32 AutoLaser и TL-403CB  SmileCat  [ 1 2 ]
174 6646 25-02-2021 18:48:56  musicman3
0 48 25-02-2021 13:02:09  meglauk
10 340 23-02-2021 19:15:17  standho
0 53 22-02-2021 04:58:55  Фом
5 279 18-02-2021 13:15:29  ydav75
15 402 18-02-2021 12:19:55  ydav75
38 RDworks и Autocad  Nimrod94
4 84 12-02-2021 13:43:46  Valera5609
3 95 10-02-2021 19:08:26  agronom_26
248 32872 05-02-2021 17:50:48  Valera5609
7 126 02-02-2021 09:40:03  Dark Night
3 86 28-01-2021 12:04:03  Valera5609
43 Вопрос по рдворкс  Тимур Гильманов
4 176 26-01-2021 09:54:53  AlexiAlexiAlexi
19 993 26-01-2021 01:37:16  AlexiAlexiAlexi
22 704 25-01-2021 13:20:58  DeniskaUSSR
10 258 19-01-2021 09:06:39  Silvermilenium_
47 Нужен совет  AlekssnderKuznetsov
15 212 16-01-2021 17:34:08  Valera5609
0 44 22-12-2020 22:53:47  nuriiix
2 113 18-12-2020 00:32:20  Kusss
3 151 13-12-2020 16:01:45  Жмурик
0 77 13-12-2020 13:16:01  Michelinbrat
5 485 10-12-2020 02:03:50  bart68rus
13 1245 08-12-2020 21:04:21  Valera5609
51 2289 08-12-2020 12:49:37  Alex_UnDeR
12 661 07-12-2020 11:04:01  Valera5609
29 336 03-12-2020 21:35:55  anvaleriya
3 83 02-12-2020 16:00:09  Outsider
72 1572 02-12-2020 13:00:09  Kuz
59 Trocen vs RUIDA  ptolik
12 1427 27-11-2020 16:28:06  Cergio
4 294 27-11-2020 15:35:42  CNCshnick
3 140 27-11-2020 03:12:56  CNCshnick
62 RDWorksV8 в CorelDRAW X8  bartilord  [ 1 2 ]
174 17084 27-11-2020 00:37:40  djbratislav
11 101 22-11-2020 15:06:45  Valera5609
1 90 19-11-2020 12:59:21  ilya37rus
1 97 19-11-2020 09:30:35  RaysLightsaber
105 6740 17-11-2020 22:18:53  Valera5609
1 112 16-11-2020 05:17:54  Олександр Га Столяр
1 121 15-11-2020 15:20:17  Дмитрий Шестак
3 476 15-11-2020 15:17:35  Дмитрий Шестак
9 133 09-11-2020 18:45:49  pro100informatika
6 214 08-11-2020 03:54:35  CNCshnick
80 7356 04-11-2020 13:25:20  ilya37rus
12 141 27-10-2020 07:10:04  Jek44
37 732 24-10-2020 13:09:32  ilya37rus
4 245 24-10-2020 06:22:03  Фом
2 77 23-10-2020 18:05:16  ilya37rus
77 К40 погорелец  Шкодавод
3 170 19-10-2020 12:30:31  Шкодавод
2 112 10-10-2020 19:22:18  Valera5609
1 102 30-09-2020 22:19:22  SNS
80 Закрыта Не включается станок  step_up
8 123 19-09-2020 08:15:07  step_up

Вы здесь » Форум клана ЧПУшников » Лазерные станки